createdAt,value
2018-09-30T00:00:55.925Z,11.69
2018-09-30T00:02:02.376Z,11.70
2018-09-30T00:03:07.123Z,11.69
2018-09-30T00:04:12.414Z,11.65
2018-09-30T00:05:16.920Z,11.69
2018-09-30T00:06:21.011Z,11.69
2018-09-30T00:07:25.265Z,11.69
2018-09-30T00:08:29.375Z,11.70
2018-09-30T00:09:33.538Z,11.68
2018-09-30T00:10:37.598Z,11.69
2018-09-30T00:11:41.745Z,11.68
2018-09-30T00:12:46.037Z,11.68
2018-09-30T00:13:50.661Z,11.67
2018-09-30T00:14:54.786Z,11.67
2018-09-30T00:15:58.970Z,11.66
2018-09-30T00:17:03.094Z,11.66
2018-09-30T00:18:08.201Z,11.66
2018-09-30T00:19:12.924Z,11.64
2018-09-30T00:20:17.026Z,11.64
2018-09-30T00:21:21.203Z,11.63
2018-09-30T00:22:25.234Z,11.62
2018-09-30T00:23:33.469Z,11.62
2018-09-30T00:24:42.951Z,11.62
2018-09-30T00:25:53.013Z,11.60
2018-09-30T00:26:57.394Z,11.58
2018-09-30T00:28:01.473Z,11.56
2018-09-30T00:29:05.604Z,11.55
2018-09-30T00:30:09.665Z,11.55
2018-09-30T00:31:15.334Z,11.53
2018-09-30T00:32:19.436Z,11.54
2018-09-30T00:33:26.550Z,11.53
2018-09-30T00:34:31.135Z,11.53
2018-09-30T00:35:35.853Z,11.50
2018-09-30T00:36:40.746Z,11.51
2018-09-30T00:37:44.971Z,11.49
2018-09-30T00:38:49.053Z,11.47
2018-09-30T00:39:53.102Z,11.47
2018-09-30T00:40:57.210Z,11.46
2018-09-30T00:42:01.325Z,11.45
2018-09-30T00:43:05.551Z,11.45
2018-09-30T00:44:09.925Z,11.44
2018-09-30T00:45:14.062Z,11.44
2018-09-30T00:46:19.853Z,11.44
2018-09-30T00:47:24.039Z,11.43
2018-09-30T00:48:28.176Z,11.42
2018-09-30T00:49:32.377Z,11.42
2018-09-30T00:50:36.729Z,11.42
2018-09-30T00:51:40.799Z,11.41
2018-09-30T00:52:44.933Z,11.40
2018-09-30T00:53:49.275Z,11.40
2018-09-30T00:54:54.050Z,11.39
2018-09-30T00:55:58.417Z,11.39
2018-09-30T00:57:02.537Z,11.38
2018-09-30T00:58:06.695Z,11.37
2018-09-30T00:59:11.773Z,11.36
2018-09-30T01:00:16.446Z,11.36
2018-09-30T01:01:20.604Z,11.35
2018-09-30T01:02:24.661Z,11.28
2018-09-30T01:03:28.812Z,11.34
2018-09-30T01:04:32.876Z,11.33
2018-09-30T01:05:37.004Z,11.31
2018-09-30T01:06:41.224Z,11.31
2018-09-30T01:07:45.304Z,11.30
2018-09-30T01:08:49.501Z,11.29
2018-09-30T01:09:53.723Z,11.30
2018-09-30T01:10:58.707Z,11.22
2018-09-30T01:12:02.760Z,11.25
2018-09-30T01:13:06.872Z,11.23
2018-09-30T01:14:11.084Z,11.21
2018-09-30T01:15:15.146Z,11.19
2018-09-30T01:16:19.869Z,11.17
2018-09-30T01:17:24.634Z,11.15
2018-09-30T01:18:28.757Z,11.14
2018-09-30T01:19:32.728Z,11.12
2018-09-30T01:20:36.887Z,11.11
2018-09-30T01:21:41.996Z,11.10
2018-09-30T01:22:46.169Z,11.09
2018-09-30T01:23:51.249Z,11.08
2018-09-30T01:24:55.248Z,11.08
2018-09-30T01:25:59.466Z,11.07
2018-09-30T01:27:03.596Z,11.06
2018-09-30T01:28:08.276Z,11.06
2018-09-30T01:29:13.605Z,11.06
2018-09-30T01:30:18.520Z,11.06
2018-09-30T01:31:22.715Z,11.07
2018-09-30T01:32:26.856Z,11.03
2018-09-30T01:33:31.956Z,11.05
2018-09-30T01:34:36.017Z,11.06
2018-09-30T01:35:40.628Z,11.06
2018-09-30T01:36:44.752Z,11.04
2018-09-30T01:37:49.736Z,11.04
2018-09-30T01:38:53.840Z,11.03
2018-09-30T01:39:58.934Z,11.02
2018-09-30T01:41:03.055Z,11.01
2018-09-30T01:42:07.265Z,11.00
2018-09-30T01:43:11.444Z,11.01
2018-09-30T01:44:15.529Z,10.99
2018-09-30T01:45:19.661Z,10.99
2018-09-30T01:46:23.743Z,10.98
2018-09-30T01:47:27.767Z,10.98
2018-09-30T01:48:35.637Z,10.98
2018-09-30T01:49:40.554Z,10.97
2018-09-30T01:50:44.637Z,10.96
2018-09-30T01:51:58.908Z,10.97
2018-09-30T01:53:02.961Z,10.96
2018-09-30T01:54:07.862Z,10.97
2018-09-30T01:55:13.357Z,10.98
2018-09-30T01:56:17.407Z,10.97
2018-09-30T01:57:22.159Z,10.96
2018-09-30T01:58:26.291Z,10.97
2018-09-30T01:59:30.354Z,10.97
2018-09-30T02:00:34.668Z,10.97
2018-09-30T02:01:38.706Z,10.93
2018-09-30T02:02:44.105Z,10.97
2018-09-30T02:03:49.502Z,10.97
2018-09-30T02:04:53.768Z,10.95
2018-09-30T02:05:57.868Z,10.96
2018-09-30T02:07:01.941Z,10.95
2018-09-30T02:09:32.130Z,10.95
2018-09-30T02:10:36.162Z,10.95
2018-09-30T02:11:40.299Z,10.96
2018-09-30T02:12:44.462Z,10.94
2018-09-30T02:13:48.530Z,10.94
2018-09-30T02:14:53.272Z,10.95
2018-09-30T02:15:57.447Z,10.93
2018-09-30T02:17:02.427Z,10.93
2018-09-30T02:18:06.710Z,10.93
2018-09-30T02:19:12.305Z,10.93
2018-09-30T02:20:17.068Z,10.93
2018-09-30T02:21:23.619Z,10.93
2018-09-30T02:22:28.904Z,10.91
2018-09-30T02:23:33.823Z,10.91
2018-09-30T02:24:37.933Z,10.91
2018-09-30T02:25:42.037Z,10.89
2018-09-30T02:26:46.170Z,10.90
2018-09-30T02:27:51.418Z,10.90
2018-09-30T02:28:55.936Z,10.89
2018-09-30T02:30:00.350Z,10.89
2018-09-30T02:31:06.082Z,10.89
2018-09-30T02:32:11.089Z,10.89
2018-09-30T02:33:15.243Z,10.89
2018-09-30T02:34:19.477Z,10.88
2018-09-30T02:35:24.590Z,10.88
2018-09-30T02:36:28.691Z,10.88
2018-09-30T02:37:32.694Z,10.87
2018-09-30T02:38:36.840Z,10.87
2018-09-30T02:39:40.952Z,10.86
2018-09-30T02:40:44.989Z,10.84
2018-09-30T02:41:51.401Z,10.84
2018-09-30T02:42:56.686Z,10.82
2018-09-30T02:44:00.787Z,10.82
2018-09-30T02:45:05.095Z,10.80
2018-09-30T02:46:09.280Z,10.79
2018-09-30T02:47:14.447Z,10.78
2018-09-30T02:48:20.304Z,10.77
2018-09-30T02:49:24.539Z,10.76
2018-09-30T02:50:28.732Z,10.73
2018-09-30T02:51:32.971Z,10.72
2018-09-30T02:52:36.999Z,10.72
2018-09-30T02:53:42.017Z,10.65
2018-09-30T02:54:47.156Z,10.71
2018-09-30T02:55:52.684Z,10.69
2018-09-30T02:56:57.585Z,10.68
2018-09-30T02:58:02.824Z,10.68
2018-09-30T02:59:07.986Z,10.67
2018-09-30T03:00:12.286Z,10.65
2018-09-30T03:01:16.364Z,10.66
2018-09-30T03:02:20.434Z,10.65
2018-09-30T03:03:24.568Z,10.64
2018-09-30T03:04:28.621Z,10.63
2018-09-30T03:05:32.775Z,10.62
2018-09-30T03:06:42.934Z,10.61
2018-09-30T03:07:52.299Z,10.60
2018-09-30T03:09:01.835Z,10.55
2018-09-30T03:10:06.716Z,10.57
2018-09-30T03:11:11.945Z,10.56
2018-09-30T03:12:16.087Z,10.54
2018-09-30T03:13:20.156Z,10.55
2018-09-30T03:14:24.646Z,10.53
2018-09-30T03:15:29.261Z,10.54
2018-09-30T03:16:35.173Z,10.54
2018-09-30T03:17:39.209Z,10.53
2018-09-30T03:18:43.294Z,10.53
2018-09-30T03:19:47.967Z,10.53
2018-09-30T03:20:52.128Z,10.52
2018-09-30T03:21:56.192Z,10.52
2018-09-30T03:23:00.308Z,10.51
2018-09-30T03:24:05.384Z,10.48
2018-09-30T03:25:09.521Z,10.48
2018-09-30T03:26:14.617Z,10.46
2018-09-30T03:27:19.634Z,10.46
2018-09-30T03:28:23.724Z,10.44
2018-09-30T03:29:27.809Z,10.42
2018-09-30T03:30:32.049Z,10.41
2018-09-30T03:31:36.161Z,10.39
2018-09-30T03:32:40.320Z,10.37
2018-09-30T03:33:45.297Z,10.37
2018-09-30T03:34:49.412Z,10.36
2018-09-30T03:35:54.864Z,10.35
2018-09-30T03:36:59.442Z,10.33
2018-09-30T03:38:03.714Z,10.33
2018-09-30T03:39:08.915Z,10.33
2018-09-30T03:40:13.660Z,10.31
2018-09-30T03:41:19.077Z,10.31
2018-09-30T03:42:23.127Z,10.30
2018-09-30T03:43:27.810Z,10.29
2018-09-30T03:44:31.927Z,10.28
2018-09-30T03:45:36.016Z,10.26
2018-09-30T03:46:40.097Z,10.25
2018-09-30T03:47:44.172Z,10.24
2018-09-30T03:48:49.292Z,10.23
2018-09-30T03:49:54.056Z,10.21
2018-09-30T03:50:58.145Z,10.22
2018-09-30T03:52:02.224Z,10.22
2018-09-30T03:53:07.360Z,10.21
2018-09-30T03:54:11.491Z,10.21
2018-09-30T03:55:17.272Z,10.19
2018-09-30T03:56:21.441Z,10.19
2018-09-30T03:57:25.628Z,10.17
2018-09-30T03:58:29.831Z,10.16
2018-09-30T03:59:33.951Z,10.16
2018-09-30T04:00:38.142Z,10.15
2018-09-30T04:01:42.237Z,10.14
2018-09-30T04:02:48.101Z,10.14
2018-09-30T04:03:52.440Z,10.13
2018-09-30T04:04:56.505Z,10.12
2018-09-30T04:06:00.642Z,10.12
2018-09-30T04:07:04.697Z,10.13
2018-09-30T04:08:09.380Z,10.13
2018-09-30T04:09:13.413Z,10.12
2018-09-30T04:10:18.029Z,10.12
2018-09-30T04:11:22.903Z,10.12
2018-09-30T04:12:26.961Z,10.12
2018-09-30T04:13:31.062Z,10.13
2018-09-30T04:14:35.189Z,10.12
2018-09-30T04:15:39.544Z,10.12
2018-09-30T04:16:43.579Z,10.12
2018-09-30T04:17:47.656Z,10.11
2018-09-30T04:18:52.731Z,10.11
2018-09-30T04:19:56.811Z,10.10
2018-09-30T04:21:02.577Z,10.10
2018-09-30T04:22:06.832Z,10.09
2018-09-30T04:23:10.998Z,10.08
2018-09-30T04:24:15.686Z,10.06
2018-09-30T04:25:20.052Z,10.07
2018-09-30T04:26:25.039Z,10.06
2018-09-30T04:27:29.165Z,10.05
2018-09-30T04:28:33.390Z,10.06
2018-09-30T04:29:37.453Z,10.06
2018-09-30T04:30:41.613Z,10.05
2018-09-30T04:31:45.672Z,10.04
2018-09-30T04:32:50.906Z,10.04
2018-09-30T04:33:55.062Z,10.04
2018-09-30T04:34:59.264Z,10.04
2018-09-30T04:36:03.376Z,10.04
2018-09-30T04:37:07.448Z,10.04
2018-09-30T04:38:11.579Z,10.04
2018-09-30T04:39:15.711Z,10.02
2018-09-30T04:40:20.465Z,10.02
2018-09-30T04:41:24.708Z,10.02
2018-09-30T04:42:28.800Z,10.02
2018-09-30T04:43:32.810Z,10.02
2018-09-30T04:44:37.696Z,10.02
2018-09-30T04:45:41.856Z,10.01
2018-09-30T04:46:46.057Z,10.01
2018-09-30T04:47:50.939Z,10.01
2018-09-30T04:48:54.950Z,10.00
2018-09-30T04:49:59.856Z,10.00
2018-09-30T04:51:03.940Z,10.00
2018-09-30T04:52:08.003Z,9.99
2018-09-30T04:53:12.607Z,9.94
2018-09-30T04:54:16.808Z,9.97
2018-09-30T04:55:21.619Z,9.98
2018-09-30T04:56:25.781Z,9.97
2018-09-30T04:57:30.154Z,9.97
2018-09-30T04:58:35.158Z,9.94
2018-09-30T04:59:40.798Z,9.94
2018-09-30T05:00:44.823Z,9.94
2018-09-30T05:01:48.922Z,9.93
2018-09-30T05:02:52.988Z,9.93
2018-09-30T05:03:57.161Z,9.91
2018-09-30T05:05:01.308Z,9.91
2018-09-30T05:06:05.479Z,9.91
2018-09-30T05:07:09.667Z,9.90
2018-09-30T05:08:13.844Z,9.90
2018-09-30T05:09:18.625Z,9.89
2018-09-30T05:10:22.702Z,9.90
2018-09-30T05:11:26.948Z,9.89
2018-09-30T05:12:31.009Z,9.88
2018-09-30T05:13:35.800Z,9.88
2018-09-30T05:14:39.937Z,9.87
2018-09-30T05:15:45.265Z,9.87
2018-09-30T05:16:51.146Z,9.86
2018-09-30T05:17:55.968Z,9.86
2018-09-30T05:19:00.391Z,9.85
2018-09-30T05:20:05.112Z,9.85
2018-09-30T05:21:10.162Z,9.84
2018-09-30T05:22:14.299Z,9.86
2018-09-30T05:23:18.541Z,9.84
2018-09-30T05:24:22.674Z,9.84
2018-09-30T05:25:26.816Z,9.83
2018-09-30T05:26:30.921Z,9.83
2018-09-30T05:27:35.864Z,9.83
2018-09-30T05:28:41.214Z,9.81
2018-09-30T05:29:45.442Z,9.81
2018-09-30T05:30:50.558Z,9.81
2018-09-30T05:31:54.723Z,9.79
2018-09-30T05:32:59.111Z,9.78
2018-09-30T05:34:03.287Z,9.77
2018-09-30T05:35:07.713Z,9.76
2018-09-30T05:36:12.418Z,9.74
2018-09-30T05:37:17.640Z,9.74
2018-09-30T05:38:21.746Z,9.74
2018-09-30T05:39:25.913Z,9.73
2018-09-30T05:40:30.047Z,9.72
2018-09-30T05:41:34.842Z,9.71
2018-09-30T05:42:38.936Z,9.71
2018-09-30T05:43:43.025Z,9.70
2018-09-30T05:44:47.785Z,9.70
2018-09-30T05:45:51.908Z,9.70
2018-09-30T05:46:56.072Z,9.69
2018-09-30T05:48:00.374Z,9.69
2018-09-30T05:49:04.970Z,9.69
2018-09-30T05:50:09.168Z,9.69
2018-09-30T05:51:13.790Z,9.68
2018-09-30T05:52:24.790Z,9.69
2018-09-30T05:53:29.897Z,9.68
2018-09-30T05:54:34.025Z,9.70
2018-09-30T05:55:38.592Z,9.69
2018-09-30T05:56:44.705Z,9.70
2018-09-30T05:57:49.203Z,9.70
2018-09-30T05:58:54.583Z,9.71
2018-09-30T05:59:58.633Z,9.72
2018-09-30T06:01:02.737Z,9.72
2018-09-30T06:02:07.725Z,9.74
2018-09-30T06:03:11.918Z,9.75
2018-09-30T06:04:16.115Z,9.75
2018-09-30T06:05:20.157Z,9.76
2018-09-30T06:06:24.444Z,9.76
2018-09-30T06:07:28.602Z,9.78
2018-09-30T06:08:33.422Z,9.78
2018-09-30T06:09:37.511Z,9.78
2018-09-30T06:10:43.074Z,9.79
2018-09-30T06:11:47.804Z,9.81
2018-09-30T06:12:51.887Z,9.82
2018-09-30T06:13:56.854Z,9.86
2018-09-30T06:15:02.894Z,9.87
2018-09-30T06:16:07.119Z,9.89
2018-09-30T06:17:12.044Z,9.91
2018-09-30T06:18:18.132Z,9.92
2018-09-30T06:19:23.167Z,9.93
2018-09-30T06:20:28.842Z,9.95
2018-09-30T06:21:32.846Z,9.98
2018-09-30T06:22:37.882Z,9.99
2018-09-30T06:23:42.096Z,10.00
2018-09-30T06:24:46.159Z,10.03
2018-09-30T06:25:50.252Z,10.04
2018-09-30T06:26:54.400Z,10.06
2018-09-30T06:27:59.129Z,10.07
2018-09-30T06:29:04.111Z,10.09
2018-09-30T06:30:08.346Z,10.11
2018-09-30T06:31:12.512Z,10.13
2018-09-30T06:32:16.705Z,10.13
2018-09-30T06:33:22.005Z,10.16
2018-09-30T06:34:26.160Z,10.16
2018-09-30T06:35:31.295Z,10.17
2018-09-30T06:36:35.457Z,10.18
2018-09-30T06:37:39.508Z,10.19
2018-09-30T06:38:43.729Z,10.21
2018-09-30T06:39:47.820Z,10.22
2018-09-30T06:40:51.899Z,10.23
2018-09-30T06:41:56.050Z,10.23
2018-09-30T06:43:00.989Z,10.23
2018-09-30T06:44:05.282Z,10.25
2018-09-30T06:45:09.700Z,10.25
2018-09-30T06:46:13.750Z,10.24
2018-09-30T06:47:20.219Z,10.26
2018-09-30T06:48:24.277Z,10.27
2018-09-30T06:49:28.494Z,10.27
2018-09-30T06:50:33.116Z,10.28
2018-09-30T06:51:38.004Z,10.28
2018-09-30T06:52:42.690Z,10.28
2018-09-30T06:53:46.924Z,10.30
2018-09-30T06:54:51.118Z,10.31
2018-09-30T06:55:55.213Z,10.24
2018-09-30T06:56:59.465Z,10.33
2018-09-30T06:58:03.561Z,10.32
2018-09-30T06:59:08.344Z,10.34
2018-09-30T07:00:12.409Z,10.35
2018-09-30T07:01:17.194Z,10.37
2018-09-30T07:02:21.287Z,10.37
2018-09-30T07:03:25.449Z,10.39
2018-09-30T07:04:29.533Z,10.39
2018-09-30T07:05:33.677Z,10.40
2018-09-30T07:06:37.954Z,10.41
2018-09-30T07:07:42.617Z,10.41
2018-09-30T07:08:46.786Z,10.43
2018-09-30T07:09:50.888Z,10.43
2018-09-30T07:10:55.672Z,10.44
2018-09-30T07:11:59.685Z,10.45
2018-09-30T07:13:04.712Z,10.42
2018-09-30T07:14:08.771Z,10.47
2018-09-30T07:15:13.028Z,10.48
2018-09-30T07:16:17.252Z,10.51
2018-09-30T07:17:21.925Z,10.51
2018-09-30T07:18:26.086Z,10.53
2018-09-30T07:19:31.485Z,10.53
2018-09-30T07:20:35.943Z,10.53
2018-09-30T07:21:40.169Z,10.58
2018-09-30T07:22:45.194Z,10.59
2018-09-30T07:23:50.338Z,10.61
2018-09-30T07:24:54.452Z,10.62
2018-09-30T07:25:58.588Z,10.62
2018-09-30T07:27:05.114Z,10.65
2018-09-30T07:28:09.314Z,10.66
2018-09-30T07:29:13.481Z,10.67
2018-09-30T07:30:17.546Z,10.70
2018-09-30T07:31:21.614Z,10.70
2018-09-30T07:32:26.593Z,10.71
2018-09-30T07:33:30.607Z,10.75
2018-09-30T07:34:34.852Z,10.75
2018-09-30T07:35:38.969Z,10.76
2018-09-30T07:36:43.026Z,10.77
2018-09-30T07:37:47.263Z,10.79
2018-09-30T07:38:52.147Z,10.80
2018-09-30T07:39:56.286Z,10.82
2018-09-30T07:41:00.776Z,10.79
2018-09-30T07:42:04.923Z,10.78
2018-09-30T07:43:10.647Z,10.86
2018-09-30T07:44:15.501Z,10.87
2018-09-30T07:45:20.330Z,10.88
2018-09-30T07:46:24.469Z,10.89
2018-09-30T07:47:29.818Z,10.90
2018-09-30T07:48:33.903Z,10.92
2018-09-30T07:49:38.029Z,10.91
2018-09-30T07:50:42.151Z,10.94
2018-09-30T07:51:46.389Z,10.96
2018-09-30T07:52:50.605Z,10.97
2018-09-30T07:53:55.326Z,11.01
2018-09-30T07:54:59.372Z,11.01
2018-09-30T07:56:04.633Z,10.97
2018-09-30T07:57:08.817Z,11.04
2018-09-30T07:58:13.458Z,11.06
2018-09-30T07:59:17.631Z,11.06
2018-09-30T08:00:21.814Z,11.07
2018-09-30T08:01:27.203Z,11.08
2018-09-30T08:02:31.255Z,11.09
2018-09-30T08:03:36.494Z,11.09
2018-09-30T08:04:41.205Z,11.09
2018-09-30T08:05:45.568Z,11.11
2018-09-30T08:06:50.638Z,11.11
2018-09-30T08:07:54.745Z,11.12
2018-09-30T08:08:58.850Z,11.12
2018-09-30T08:10:02.833Z,11.13
2018-09-30T08:11:07.000Z,11.15
2018-09-30T08:12:11.084Z,11.17
2018-09-30T08:13:15.858Z,11.18
2018-09-30T08:14:19.867Z,11.19
2018-09-30T08:15:23.909Z,11.19
2018-09-30T08:16:28.144Z,11.21
2018-09-30T08:17:32.932Z,11.22
2018-09-30T08:18:37.754Z,11.23
2018-09-30T08:19:42.787Z,11.25
2018-09-30T08:20:47.617Z,11.26
2018-09-30T08:21:52.350Z,11.27
2018-09-30T08:22:56.551Z,11.28
2018-09-30T08:24:00.744Z,11.30
2018-09-30T08:25:05.101Z,11.31
2018-09-30T08:26:14.049Z,11.33
2018-09-30T08:27:18.785Z,11.34
2018-09-30T08:28:25.557Z,11.34
2018-09-30T08:29:29.895Z,11.37
2018-09-30T08:30:34.119Z,11.38
2018-09-30T08:31:39.144Z,11.40
2018-09-30T08:32:50.265Z,11.41
2018-09-30T08:33:54.786Z,11.43
2018-09-30T08:34:59.880Z,11.44
2018-09-30T08:36:06.077Z,11.45
2018-09-30T08:37:10.285Z,11.48
2018-09-30T08:38:19.972Z,11.49
2018-09-30T08:39:24.121Z,11.52
2018-09-30T08:40:33.795Z,11.54
2018-09-30T08:41:38.728Z,11.56
2018-09-30T08:42:43.631Z,11.57
2018-09-30T08:43:47.737Z,11.58
2018-09-30T08:44:51.869Z,11.60
2018-09-30T08:45:56.432Z,11.61
2018-09-30T08:47:00.734Z,11.61
2018-09-30T08:48:04.750Z,11.63
2018-09-30T08:49:09.748Z,11.63
2018-09-30T08:50:14.615Z,11.66
2018-09-30T08:51:19.581Z,11.67
2018-09-30T08:52:24.267Z,11.69
2018-09-30T08:53:28.513Z,11.71
2018-09-30T08:54:32.621Z,11.71
2018-09-30T08:55:36.987Z,11.74
2018-09-30T08:56:41.342Z,11.75
2018-09-30T08:57:45.507Z,11.76
2018-09-30T08:58:49.743Z,11.78
2018-09-30T08:59:54.320Z,11.81
2018-09-30T09:00:59.387Z,11.83
2018-09-30T09:02:03.582Z,11.86
2018-09-30T09:03:07.901Z,11.88
2018-09-30T09:04:11.960Z,11.90
2018-09-30T09:05:16.093Z,11.92
2018-09-30T09:06:20.165Z,11.96
2018-09-30T09:07:24.300Z,11.99
2018-09-30T09:08:28.408Z,12.01
2018-09-30T09:09:32.434Z,12.03
2018-09-30T09:10:37.429Z,12.06
2018-09-30T09:11:41.496Z,12.07
2018-09-30T09:12:45.559Z,12.07
2018-09-30T09:13:49.727Z,12.09
2018-09-30T09:14:54.447Z,12.10
2018-09-30T09:15:58.544Z,12.12
2018-09-30T09:17:02.699Z,12.12
2018-09-30T09:18:07.387Z,12.15
2018-09-30T09:19:11.612Z,12.16
2018-09-30T09:20:15.750Z,12.20
2018-09-30T09:21:21.699Z,12.22
2018-09-30T09:22:25.787Z,12.24
2018-09-30T09:23:29.824Z,12.26
2018-09-30T09:24:33.987Z,12.27
2018-09-30T09:25:38.358Z,12.29
2018-09-30T09:26:42.815Z,12.30
2018-09-30T09:27:46.868Z,12.29
2018-09-30T09:28:51.002Z,12.31
2018-09-30T09:29:55.026Z,12.33
2018-09-30T09:30:59.169Z,12.36
2018-09-30T09:32:03.287Z,12.37
2018-09-30T09:33:07.840Z,12.39
2018-09-30T09:34:11.892Z,12.42
2018-09-30T09:35:16.091Z,12.48
2018-09-30T09:36:21.782Z,12.51
2018-09-30T09:37:25.844Z,12.54
2018-09-30T09:38:30.043Z,12.58
2018-09-30T09:39:34.081Z,12.60
2018-09-30T09:40:38.162Z,12.63
2018-09-30T09:41:42.266Z,12.66
2018-09-30T09:42:46.469Z,12.68
2018-09-30T09:43:52.947Z,12.71
2018-09-30T09:44:57.020Z,12.72
2018-09-30T09:46:01.103Z,12.74
2018-09-30T09:47:06.108Z,12.76
2018-09-30T09:48:10.783Z,12.79
2018-09-30T09:49:15.281Z,12.83
2018-09-30T09:50:20.467Z,12.85
2018-09-30T09:51:24.534Z,12.89
2018-09-30T09:52:28.708Z,12.91
2018-09-30T09:53:34.020Z,12.95
2018-09-30T09:54:38.733Z,12.98
2018-09-30T09:55:43.603Z,12.99
2018-09-30T09:56:47.883Z,13.01
2018-09-30T09:57:52.021Z,13.04
2018-09-30T09:58:56.181Z,13.06
2018-09-30T10:00:00.388Z,13.09
2018-09-30T10:01:05.862Z,13.10
2018-09-30T10:02:10.508Z,13.10
2018-09-30T10:03:16.260Z,13.12
2018-09-30T10:04:20.428Z,13.13
2018-09-30T10:05:27.580Z,13.14
2018-09-30T10:06:31.699Z,13.14
2018-09-30T10:07:35.787Z,13.14
2018-09-30T10:08:40.101Z,13.15
2018-09-30T10:09:44.272Z,13.15
2018-09-30T10:10:49.502Z,13.16
2018-09-30T10:11:53.606Z,13.16
2018-09-30T10:12:57.910Z,13.18
2018-09-30T10:14:02.628Z,13.20
2018-09-30T10:15:06.864Z,13.23
2018-09-30T10:16:12.191Z,13.26
2018-09-30T10:17:16.840Z,13.28
2018-09-30T10:18:20.919Z,13.30
2018-09-30T10:19:25.125Z,13.31
2018-09-30T10:20:29.196Z,13.35
2018-09-30T10:21:33.352Z,13.36
2018-09-30T10:22:37.621Z,13.37
2018-09-30T10:23:41.681Z,13.39
2018-09-30T10:24:46.094Z,13.39
2018-09-30T10:25:50.221Z,13.42
2018-09-30T10:26:54.864Z,13.44
2018-09-30T10:27:59.869Z,13.45
2018-09-30T10:29:04.067Z,13.48
2018-09-30T10:30:08.267Z,13.51
2018-09-30T10:31:12.338Z,13.52
2018-09-30T10:32:16.456Z,13.52
2018-09-30T10:33:20.539Z,13.53
2018-09-30T10:34:24.641Z,13.54
2018-09-30T10:35:28.863Z,13.55
2018-09-30T10:36:33.093Z,13.56
2018-09-30T10:37:37.267Z,13.56
2018-09-30T10:38:41.476Z,13.59
2018-09-30T10:39:46.011Z,13.63
2018-09-30T10:40:50.956Z,13.65
2018-09-30T10:41:55.093Z,13.67
2018-09-30T10:43:00.637Z,13.69
2018-09-30T10:44:04.700Z,13.71
2018-09-30T10:45:09.657Z,13.74
2018-09-30T10:46:14.645Z,13.76
2018-09-30T10:47:18.710Z,13.78
2018-09-30T10:48:22.916Z,13.81
2018-09-30T10:49:26.998Z,13.85
2018-09-30T10:50:31.205Z,13.86
2018-09-30T10:51:36.495Z,13.86
2018-09-30T10:52:40.728Z,13.88
2018-09-30T10:53:44.878Z,13.88
2018-09-30T10:54:49.013Z,13.90
2018-09-30T10:55:53.962Z,13.90
2018-09-30T10:56:58.363Z,13.90
2018-09-30T10:58:03.340Z,13.91
2018-09-30T10:59:08.486Z,13.94
2018-09-30T11:00:13.853Z,13.95
2018-09-30T11:01:17.959Z,13.96
2018-09-30T11:02:23.964Z,13.96
2018-09-30T11:03:28.224Z,13.97
2018-09-30T11:04:32.452Z,13.98
2018-09-30T11:05:36.572Z,13.99
2018-09-30T11:06:40.716Z,14.01
2018-09-30T11:07:44.863Z,14.01
2018-09-30T11:08:49.047Z,14.04
2018-09-30T11:09:53.932Z,14.05
2018-09-30T11:10:59.668Z,14.09
2018-09-30T11:12:04.372Z,14.11
2018-09-30T11:13:09.105Z,14.12
2018-09-30T11:14:13.282Z,14.16
2018-09-30T11:15:18.355Z,14.16
2018-09-30T11:16:23.341Z,14.18
2018-09-30T11:17:27.392Z,14.19
2018-09-30T11:18:31.560Z,14.21
2018-09-30T11:19:36.513Z,14.22
2018-09-30T11:20:40.790Z,14.24
2018-09-30T11:21:45.046Z,14.24
2018-09-30T11:22:49.916Z,14.27
2018-09-30T11:23:53.985Z,14.30
2018-09-30T11:24:58.157Z,14.33
2018-09-30T11:26:02.259Z,14.38
2018-09-30T11:27:06.502Z,14.41
2018-09-30T11:28:11.271Z,14.44
2018-09-30T11:29:15.392Z,14.47
2018-09-30T11:30:19.518Z,14.50
2018-09-30T11:31:23.688Z,14.52
2018-09-30T11:32:28.357Z,14.55
2018-09-30T11:33:32.583Z,14.59
2018-09-30T11:34:36.606Z,14.61
2018-09-30T11:35:40.921Z,14.64
2018-09-30T11:36:46.814Z,14.66
2018-09-30T11:37:52.662Z,14.70
2018-09-30T11:38:57.073Z,14.74
2018-09-30T11:40:01.499Z,14.75
2018-09-30T11:41:05.593Z,14.78
2018-09-30T11:42:10.336Z,14.78
2018-09-30T11:43:15.246Z,14.81
2018-09-30T11:44:20.135Z,14.83
2018-09-30T11:45:24.352Z,14.84
2018-09-30T11:46:28.555Z,14.85
2018-09-30T11:47:32.589Z,14.86
2018-09-30T11:48:36.668Z,14.86
2018-09-30T11:49:41.657Z,14.86
2018-09-30T11:50:45.777Z,14.86
2018-09-30T11:51:51.917Z,14.85
2018-09-30T11:52:57.181Z,14.84
2018-09-30T11:54:01.353Z,14.85
2018-09-30T11:55:05.474Z,14.87
2018-09-30T11:56:09.690Z,14.90
2018-09-30T11:57:15.117Z,14.91
2018-09-30T11:58:19.253Z,14.93
2018-09-30T11:59:24.154Z,14.98
2018-09-30T12:00:29.326Z,14.98
2018-09-30T12:01:33.416Z,14.98
2018-09-30T12:02:39.402Z,14.98
2018-09-30T12:03:43.515Z,14.99
2018-09-30T12:04:47.619Z,14.98
2018-09-30T12:05:51.711Z,14.98
2018-09-30T12:06:55.811Z,14.97
2018-09-30T12:07:59.919Z,14.98
2018-09-30T12:09:07.354Z,14.98
2018-09-30T12:10:11.949Z,14.99
2018-09-30T12:11:17.039Z,15.02
2018-09-30T12:12:21.246Z,15.04
2018-09-30T12:13:27.105Z,15.05
2018-09-30T12:14:31.234Z,15.08
2018-09-30T12:15:35.309Z,15.10
2018-09-30T12:16:39.468Z,15.11
2018-09-30T12:17:43.516Z,15.12
2018-09-30T12:18:47.665Z,15.13
2018-09-30T12:19:52.054Z,15.12
2018-09-30T12:20:56.234Z,15.13
2018-09-30T12:22:00.407Z,15.14
2018-09-30T12:23:04.595Z,15.16
2018-09-30T12:24:08.729Z,15.18
2018-09-30T12:25:13.832Z,15.22
2018-09-30T12:26:17.971Z,15.25
2018-09-30T12:27:22.065Z,15.27
2018-09-30T12:28:26.165Z,15.32
2018-09-30T12:29:30.967Z,15.38
2018-09-30T12:30:36.256Z,15.45
2018-09-30T12:31:41.015Z,15.51
2018-09-30T12:32:45.199Z,15.55
2018-09-30T12:33:49.253Z,15.58
2018-09-30T12:34:53.486Z,15.61
2018-09-30T12:35:58.427Z,15.62
2018-09-30T12:37:02.478Z,15.64
2018-09-30T12:38:06.714Z,15.65
2018-09-30T12:39:12.143Z,15.66
2018-09-30T12:40:17.204Z,15.66
2018-09-30T12:41:22.054Z,15.64
2018-09-30T12:42:26.096Z,15.63
2018-09-30T12:43:31.048Z,15.64
2018-09-30T12:44:36.033Z,15.63
2018-09-30T12:45:40.087Z,15.64
2018-09-30T12:46:44.292Z,15.67
2018-09-30T12:47:49.020Z,15.69
2018-09-30T12:48:53.085Z,15.69
2018-09-30T12:49:57.174Z,15.71
2018-09-30T12:51:01.325Z,15.70
2018-09-30T12:52:05.433Z,15.70
2018-09-30T12:53:09.595Z,15.68
2018-09-30T12:54:13.737Z,15.68
2018-09-30T12:55:17.777Z,15.67
2018-09-30T12:56:22.701Z,15.67
2018-09-30T12:57:27.145Z,15.68
2018-09-30T12:58:31.229Z,15.71
2018-09-30T12:59:36.900Z,15.73
2018-09-30T13:00:40.890Z,15.75
2018-09-30T13:01:45.125Z,15.80
2018-09-30T13:02:49.289Z,15.81
2018-09-30T13:03:53.315Z,15.83
2018-09-30T13:04:57.470Z,15.84
2018-09-30T13:06:01.741Z,15.86
2018-09-30T13:07:05.958Z,15.87
2018-09-30T13:08:10.038Z,15.89
2018-09-30T13:09:14.357Z,15.91
2018-09-30T13:10:19.514Z,15.92
2018-09-30T13:11:24.712Z,15.94
2018-09-30T13:12:29.696Z,15.96
2018-09-30T13:13:33.920Z,15.96
2018-09-30T13:14:38.087Z,15.97
2018-09-30T13:15:42.298Z,15.97
2018-09-30T13:16:46.470Z,15.95
2018-09-30T13:17:50.525Z,15.96
2018-09-30T13:18:54.716Z,15.94
2018-09-30T13:19:59.548Z,15.94
2018-09-30T13:21:04.336Z,15.93
2018-09-30T13:22:08.427Z,15.91
2018-09-30T13:23:12.811Z,15.90
2018-09-30T13:24:17.041Z,15.90
2018-09-30T13:25:21.153Z,15.92
2018-09-30T13:26:25.416Z,15.92
2018-09-30T13:27:29.428Z,15.96
2018-09-30T13:28:33.575Z,15.97
2018-09-30T13:29:38.508Z,16.00
2018-09-30T13:30:43.290Z,16.02
2018-09-30T13:31:47.357Z,16.05
2018-09-30T13:32:53.647Z,16.07
2018-09-30T13:33:58.957Z,16.09
2018-09-30T13:35:03.556Z,16.12
2018-09-30T13:36:08.179Z,16.12
2018-09-30T13:37:12.384Z,16.13
2018-09-30T13:38:16.430Z,16.13
2018-09-30T13:39:20.713Z,16.13
2018-09-30T13:40:26.625Z,16.12
2018-09-30T13:41:32.212Z,16.11
2018-09-30T13:42:36.263Z,16.09
2018-09-30T13:43:40.382Z,16.08
2018-09-30T13:44:44.722Z,16.09
2018-09-30T13:45:50.096Z,16.11
2018-09-30T13:46:54.146Z,16.13
2018-09-30T13:47:58.209Z,16.16
2018-09-30T13:49:02.350Z,16.19
2018-09-30T13:50:07.832Z,16.20
2018-09-30T13:51:13.038Z,16.23
2018-09-30T13:52:18.248Z,16.25
2018-09-30T13:53:22.873Z,16.27
2018-09-30T13:54:26.946Z,16.30
2018-09-30T13:55:31.946Z,16.33
2018-09-30T13:56:36.060Z,16.34